CheckWX is a tool to help pilots better visualize weather data.  It is not intended as a substitute for an official pre-flight weather briefing.

21:15:48 UTC

KSXT METAR
Sexton Summit Airport
Sexton Summit, Oregon, USA
Current

20 mins ago

KSXT 192056Z AUTO VRB06KT 10SM BKN025 11/10 A3011 RMK AO2 SLP185 T01110100 51005
Observed
Sep-19 @ 20:56 UTC
Wind
  • Variable at 6 KTS
Visibility
10 SM
Flight Rules
MVFR
Cloud Levels
  • Broken at 2,500' AGL
Temperature
11°C / 52°F
Dewpoint
10°C / 50°F
Humidity
94%
Altimeter
30.11" Hg
Pressure
1019.62 hPa
Previous

36 mins ago

KSXT 192040Z AUTO VRB04KT 10SM SCT005 SCT012 OVC023 10/09 A3011 RMK AO2 T01000089
Observed
Sep-19 @ 20:40 UTC
Wind
  • Variable at 4 KTS
Visibility
10 SM
Flight Rules
MVFR
Cloud Levels
  • Scattered at 500' AGL
  • Scattered at 1,200' AGL
  • Overcast at 2,300' AGL
Temperature
10°C / 50°F
Dewpoint
C / 48°F
Humidity
94%
Altimeter
30.11" Hg
Pressure
1019.62 hPa
Previous

1 hour ago

KSXT 192004Z AUTO 00000KT 5SM BR BKN005 BKN009 OVC022 10/09 A3011 RMK AO2 T01000094
Observed
Sep-19 @ 20:04 UTC
Visibility
5 SM
Flight Rules
IFR
Conditions
Mist
Cloud Levels
  • Broken at 500' AGL
  • Broken at 900' AGL
  • Overcast at 2,200' AGL
Temperature
10°C / 50°F
Dewpoint
C / 48°F
Humidity
94%
Altimeter
30.11" Hg
Pressure
1019.62 hPa